sensor_id;sensor_type;location;lat;lon;timestamp;pressure;altitude;pressure_sealevel;temperature;humidity
56040;BME280;43937;41.366;2.072;2022-10-04T00:06:55;101273.56;;;20.01;92.36
56040;BME280;43937;41.366;2.072;2022-10-04T00:09:26;101269.53;;;19.97;92.38
56040;BME280;43937;41.366;2.072;2022-10-04T00:24:35;101298.88;;;19.72;92.20
56040;BME280;43937;41.366;2.072;2022-10-04T00:31:21;101296.75;;;19.47;92.82
56040;BME280;43937;41.366;2.072;2022-10-04T00:34:43;101283.56;;;19.29;93.86
56040;BME280;43937;41.366;2.072;2022-10-04T00:36:55;101294.59;;;19.22;94.39
56040;BME280;43937;41.366;2.072;2022-10-04T00:50:43;101269.72;;;18.96;96.99
56040;BME280;43937;41.366;2.072;2022-10-04T00:53:38;101268.44;;;18.98;96.84
56040;BME280;43937;41.366;2.072;2022-10-04T00:56:10;101256.09;;;18.88;97.64
56040;BME280;43937;41.366;2.072;2022-10-04T00:58:46;101258.69;;;18.96;97.50
56040;BME280;43937;41.366;2.072;2022-10-04T01:01:18;101248.91;;;19.00;97.06
56040;BME280;43937;41.366;2.072;2022-10-04T01:03:47;101257.41;;;19.05;97.13
56040;BME280;43937;41.366;2.072;2022-10-04T01:06:14;101257.88;;;19.15;97.47
56040;BME280;43937;41.366;2.072;2022-10-04T01:08:52;101244.06;;;19.09;97.42
56040;BME280;43937;41.366;2.072;2022-10-04T01:11:24;101246.41;;;19.18;97.13
56040;BME280;43937;41.366;2.072;2022-10-04T01:13:58;101247.03;;;19.20;97.34
56040;BME280;43937;41.366;2.072;2022-10-04T01:16:31;101245.16;;;19.28;97.32
56040;BME280;43937;41.366;2.072;2022-10-04T01:21:46;101229.84;;;19.45;96.53
56040;BME280;43937;41.366;2.072;2022-10-04T01:25:46;101223.47;;;19.31;96.28
56040;BME280;43937;41.366;2.072;2022-10-04T01:28:13;101236.63;;;19.36;96.67
56040;BME280;43937;41.366;2.072;2022-10-04T01:32:14;101222.41;;;19.26;96.66
56040;BME280;43937;41.366;2.072;2022-10-04T01:36:43;101225.59;;;19.22;97.17
56040;BME280;43937;41.366;2.072;2022-10-04T01:39:11;101217.94;;;19.18;98.23
56040;BME280;43937;41.366;2.072;2022-10-04T01:44:47;101203.31;;;19.17;98.89
56040;BME280;43937;41.366;2.072;2022-10-04T01:47:27;101199.28;;;19.20;98.43
56040;BME280;43937;41.366;2.072;2022-10-04T01:49:56;101187.81;;;19.16;98.93
56040;BME280;43937;41.366;2.072;2022-10-04T01:52:36;101195.66;;;19.19;98.85
56040;BME280;43937;41.366;2.072;2022-10-04T01:55:29;101191.84;;;19.20;99.57
56040;BME280;43937;41.366;2.072;2022-10-04T01:58:05;101189.31;;;19.19;99.42
56040;BME280;43937;41.366;2.072;2022-10-04T02:00:33;101180.19;;;19.18;99.90
56040;BME280;43937;41.366;2.072;2022-10-04T02:03:03;101191.81;;;19.27;99.39
56040;BME280;43937;41.366;2.072;2022-10-04T02:05:40;101195.66;;;19.33;99.31
56040;BME280;43937;41.366;2.072;2022-10-04T02:08:10;101201.81;;;19.35;99.23
56040;BME280;43937;41.366;2.072;2022-10-04T02:12:32;101192.47;;;19.36;98.95
56040;BME280;43937;41.366;2.072;2022-10-04T02:15:01;101191.63;;;19.35;98.20
56040;BME280;43937;41.366;2.072;2022-10-04T02:17:29;101181.88;;;19.26;97.89
56040;BME280;43937;41.366;2.072;2022-10-04T02:19:57;101171.47;;;19.15;97.75
56040;BME280;43937;41.366;2.072;2022-10-04T02:22:24;101184.00;;;19.17;98.75
56040;BME280;43937;41.366;2.072;2022-10-04T02:25:47;101184.41;;;19.08;99.42
56040;BME280;43937;41.366;2.072;2022-10-04T02:28:14;101177.41;;;19.05;99.22
56040;BME280;43937;41.366;2.072;2022-10-04T02:30:46;101188.66;;;19.10;99.38
56040;BME280;43937;41.366;2.072;2022-10-04T02:33:32;101186.97;;;18.96;99.63
56040;BME280;43937;41.366;2.072;2022-10-04T02:36:02;101181.00;;;18.86;100.00
56040;BME280;43937;41.366;2.072;2022-10-04T02:38:33;101177.41;;;18.85;100.00
56040;BME280;43937;41.366;2.072;2022-10-04T02:41:02;101183.56;;;18.81;100.00
56040;BME280;43937;41.366;2.072;2022-10-04T02:43:43;101177.38;;;18.79;100.00
56040;BME280;43937;41.366;2.072;2022-10-04T02:47:20;101152.94;;;18.62;100.00
56040;BME280;43937;41.366;2.072;2022-10-04T02:49:49;101160.56;;;18.60;100.00
56040;BME280;43937;41.366;2.072;2022-10-04T02:55:08;101169.69;;;18.61;100.00
56040;BME280;43937;41.366;2.072;2022-10-04T02:57:40;101180.28;;;18.57;100.00
56040;BME280;43937;41.366;2.072;2022-10-04T03:00:23;101179.66;;;18.55;100.00
56040;BME280;43937;41.366;2.072;2022-10-04T03:03:22;101169.06;;;18.52;100.00
56040;BME280;43937;41.366;2.072;2022-10-04T03:06:10;101166.47;;;18.44;100.00
56040;BME280;43937;41.366;2.072;2022-10-04T03:08:56;101167.31;;;18.38;100.00
56040;BME280;43937;41.366;2.072;2022-10-04T03:11:26;101173.66;;;18.31;100.00
56040;BME280;43937;41.366;2.072;2022-10-04T03:13:56;101169.84;;;18.33;100.00
56040;BME280;43937;41.366;2.072;2022-10-04T03:16:23;101164.09;;;18.27;100.00
56040;BME280;43937;41.366;2.072;2022-10-04T03:18:52;101162.22;;;18.35;100.00
56040;BME280;43937;41.366;2.072;2022-10-04T03:23:54;101166.84;;;18.27;100.00
56040;BME280;43937;41.366;2.072;2022-10-04T03:26:37;101169.38;;;18.22;100.00
56040;BME280;43937;41.366;2.072;2022-10-04T03:29:07;101176.13;;;18.13;100.00
56040;BME280;43937;41.366;2.072;2022-10-04T03:31:38;101169.97;;;18.11;100.00
56040;BME280;43937;41.366;2.072;2022-10-04T03:34:12;101174.66;;;18.17;100.00
56040;BME280;43937;41.366;2.072;2022-10-04T03:36:38;101155.97;;;18.06;100.00
56040;BME280;43937;41.366;2.072;2022-10-04T03:39:06;101169.56;;;18.14;100.00
56040;BME280;43937;41.366;2.072;2022-10-04T03:41:33;101163.41;;;18.12;100.00
56040;BME280;43937;41.366;2.072;2022-10-04T03:44:02;101161.28;;;18.07;100.00
56040;BME280;43937;41.366;2.072;2022-10-04T03:46:27;101164.22;;;18.06;100.00
56040;BME280;43937;41.366;2.072;2022-10-04T03:48:54;101163.19;;;18.07;100.00
56040;BME280;43937;41.366;2.072;2022-10-04T03:51:24;101168.06;;;18.12;100.00
56040;BME280;43937;41.366;2.072;2022-10-04T03:53:55;101162.97;;;18.08;100.00
56040;BME280;43937;41.366;2.072;2022-10-04T03:56:34;101164.00;;;18.01;100.00
56040;BME280;43937;41.366;2.072;2022-10-04T03:59:04;101161.00;;;17.96;100.00
56040;BME280;43937;41.366;2.072;2022-10-04T04:01:47;101169.28;;;18.02;100.00
56040;BME280;43937;41.366;2.072;2022-10-04T04:07:16;101161.63;;;17.91;100.00
56040;BME280;43937;41.366;2.072;2022-10-04T04:15:31;101178.75;;;17.80;100.00
56040;BME280;43937;41.366;2.072;2022-10-04T04:18:01;101178.09;;;17.78;100.00
56040;BME280;43937;41.366;2.072;2022-10-04T04:20:31;101151.56;;;17.70;100.00
56040;BME280;43937;41.366;2.072;2022-10-04T04:23:20;101178.09;;;17.84;100.00
56040;BME280;43937;41.366;2.072;2022-10-04T04:25:48;101165.81;;;17.80;100.00
56040;BME280;43937;41.366;2.072;2022-10-04T04:28:33;101172.19;;;17.88;100.00
56040;BME280;43937;41.366;2.072;2022-10-04T04:32:50;101167.31;;;17.83;100.00
56040;BME280;43937;41.366;2.072;2022-10-04T04:35:51;101166.50;;;17.89;100.00
56040;BME280;43937;41.366;2.072;2022-10-04T04:38:20;101172.63;;;17.91;100.00
56040;BME280;43937;41.366;2.072;2022-10-04T04:40:46;101173.84;;;17.82;100.00
56040;BME280;43937;41.366;2.072;2022-10-04T04:43:16;101173.25;;;17.87;100.00
56040;BME280;43937;41.366;2.072;2022-10-04T04:53:26;101175.13;;;17.79;100.00
56040;BME280;43937;41.366;2.072;2022-10-04T04:55:56;101185.34;;;17.85;100.00
56040;BME280;43937;41.366;2.072;2022-10-04T04:58:32;101185.97;;;17.88;100.00
56040;BME280;43937;41.366;2.072;2022-10-04T05:01:25;101194.22;;;17.88;100.00
56040;BME280;43937;41.366;2.072;2022-10-04T05:06:28;101196.13;;;17.87;100.00
56040;BME280;43937;41.366;2.072;2022-10-04T05:08:55;101192.09;;;17.83;100.00
56040;BME280;43937;41.366;2.072;2022-10-04T05:11:21;101197.28;;;17.71;100.00
56040;BME280;43937;41.366;2.072;2022-10-04T05:14:10;101206.47;;;17.78;100.00
56040;BME280;43937;41.366;2.072;2022-10-04T05:16:59;101211.72;;;17.73;100.00
56040;BME280;43937;41.366;2.072;2022-10-04T05:19:31;101218.03;;;17.67;100.00
56040;BME280;43937;41.366;2.072;2022-10-04T05:22:01;101224.56;;;17.66;100.00
56040;BME280;43937;41.366;2.072;2022-10-04T05:24:32;101226.69;;;17.64;100.00
56040;BME280;43937;41.366;2.072;2022-10-04T05:27:04;101220.28;;;17.57;100.00
56040;BME280;43937;41.366;2.072;2022-10-04T05:29:34;101231.38;;;17.70;100.00
56040;BME280;43937;41.366;2.072;2022-10-04T05:34:39;101237.31;;;17.67;100.00
56040;BME280;43937;41.366;2.072;2022-10-04T05:38:27;101225.22;;;17.68;100.00
56040;BME280;43937;41.366;2.072;2022-10-04T05:41:05;101240.59;;;17.84;100.00
56040;BME280;43937;41.366;2.072;2022-10-04T05:43:37;101253.13;;;17.87;100.00
56040;BME280;43937;41.366;2.072;2022-10-04T05:46:21;101254.81;;;17.88;100.00
56040;BME280;43937;41.366;2.072;2022-10-04T05:48:52;101255.91;;;17.93;100.00
56040;BME280;43937;41.366;2.072;2022-10-04T05:51:21;101262.03;;;17.89;100.00
56040;BME280;43937;41.366;2.072;2022-10-04T05:53:47;101261.63;;;17.92;100.00
56040;BME280;43937;41.366;2.072;2022-10-04T06:07:28;101273.69;;;18.25;100.00
56040;BME280;43937;41.366;2.072;2022-10-04T06:10:18;101278.56;;;18.30;100.00
56040;BME280;43937;41.366;2.072;2022-10-04T06:16:43;101289.88;;;18.48;100.00
56040;BME280;43937;41.366;2.072;2022-10-04T06:20:57;101296.28;;;18.49;100.00
56040;BME280;43937;41.366;2.072;2022-10-04T06:23:29;101305.41;;;18.56;100.00
56040;BME280;43937;41.366;2.072;2022-10-04T06:26:02;101305.84;;;18.60;99.18
56040;BME280;43937;41.366;2.072;2022-10-04T06:36:35;101306.09;;;18.65;97.54
56040;BME280;43937;41.366;2.072;2022-10-04T06:39:37;101321.59;;;18.72;97.51
56040;BME280;43937;41.366;2.072;2022-10-04T06:57:04;101338.31;;;19.12;94.12
56040;BME280;43937;41.366;2.072;2022-10-04T07:02:25;101301.22;;;19.75;89.42
56040;BME280;43937;41.366;2.072;2022-10-04T07:05:12;101356.50;;;22.68;77.21
56040;BME280;43937;41.366;2.072;2022-10-04T07:07:41;101363.91;;;24.30;67.89
56040;BME280;43937;41.366;2.072;2022-10-04T07:10:31;101363.19;;;24.58;64.22
56040;BME280;43937;41.366;2.072;2022-10-04T07:18:18;101372.03;;;27.69;52.07
56040;BME280;43937;41.366;2.072;2022-10-04T07:20:49;101366.47;;;28.44;49.58
56040;BME280;43937;41.366;2.072;2022-10-04T07:23:59;101389.16;;;29.00;46.84
56040;BME280;43937;41.366;2.072;2022-10-04T07:26:35;101384.34;;;29.69;46.27
56040;BME280;43937;41.366;2.072;2022-10-04T07:29:13;101386.81;;;31.22;42.56
56040;BME280;43937;41.366;2.072;2022-10-04T07:32:10;101385.16;;;32.05;40.84
56040;BME280;43937;41.366;2.072;2022-10-04T07:34:47;101390.94;;;33.39;37.97
56040;BME280;43937;41.366;2.072;2022-10-04T07:37:15;101397.34;;;33.82;37.17
56040;BME280;43937;41.366;2.072;2022-10-04T07:41:12;101389.91;;;33.35;36.29
56040;BME280;43937;41.366;2.072;2022-10-04T07:48:41;101393.69;;;33.25;36.25
56040;BME280;43937;41.366;2.072;2022-10-04T07:51:23;101399.72;;;33.37;36.37
56040;BME280;43937;41.366;2.072;2022-10-04T07:56:40;101405.78;;;33.25;36.11
56040;BME280;43937;41.366;2.072;2022-10-04T08:04:40;101397.84;;;32.31;38.40
56040;BME280;43937;41.366;2.072;2022-10-04T08:09:19;101410.59;;;31.94;38.17
56040;BME280;43937;41.366;2.072;2022-10-04T08:26:00;101406.19;;;28.03;48.21
56040;BME280;43937;41.366;2.072;2022-10-04T08:28:49;101410.41;;;28.06;47.78
56040;BME280;43937;41.366;2.072;2022-10-04T09:01:10;101408.38;;;26.76;52.03
56040;BME280;43937;41.366;2.072;2022-10-04T09:22:53;101419.13;;;26.84;51.70
56040;BME280;43937;41.366;2.072;2022-10-04T09:28:15;101416.13;;;27.13;51.61
56040;BME280;43937;41.366;2.072;2022-10-04T09:39:21;101412.16;;;26.48;49.38
56040;BME280;43937;41.366;2.072;2022-10-04T09:42:22;101409.28;;;26.60;49.67
56040;BME280;43937;41.366;2.072;2022-10-04T09:45:05;101413.72;;;27.00;48.25
56040;BME280;43937;41.366;2.072;2022-10-04T09:47:43;101398.56;;;26.73;48.85
56040;BME280;43937;41.366;2.072;2022-10-04T09:55:45;101398.34;;;26.41;49.21
56040;BME280;43937;41.366;2.072;2022-10-04T09:58:39;101410.97;;;26.61;48.88
56040;BME280;43937;41.366;2.072;2022-10-04T10:01:37;101416.44;;;26.72;47.59
56040;BME280;43937;41.366;2.072;2022-10-04T10:07:08;101408.41;;;27.20;46.65
56040;BME280;43937;41.366;2.072;2022-10-04T10:10:04;101405.03;;;27.18;46.62
56040;BME280;43937;41.366;2.072;2022-10-04T10:13:39;101416.03;;;26.64;47.36
56040;BME280;43937;41.366;2.072;2022-10-04T10:25:10;101428.72;;;27.37;45.49
56040;BME280;43937;41.366;2.072;2022-10-04T10:27:48;101408.25;;;27.10;47.36
56040;BME280;43937;41.366;2.072;2022-10-04T10:30:24;101411.34;;;27.30;46.08
56040;BME280;43937;41.366;2.072;2022-10-04T10:33:17;101424.72;;;27.28;45.81
56040;BME280;43937;41.366;2.072;2022-10-04T10:39:02;101414.38;;;27.29;45.70
56040;BME280;43937;41.366;2.072;2022-10-04T10:43:21;101413.72;;;27.00;47.38
56040;BME280;43937;41.366;2.072;2022-10-04T10:50:52;101408.47;;;27.03;46.76
56040;BME280;43937;41.366;2.072;2022-10-04T10:59:32;101409.44;;;26.53;47.00
56040;BME280;43937;41.366;2.072;2022-10-04T11:15:41;101400.84;;;26.77;44.73
56040;BME280;43937;41.366;2.072;2022-10-04T11:18:22;101397.66;;;26.68;44.83
56040;BME280;43937;41.366;2.072;2022-10-04T11:48:08;101400.25;;;26.75;42.42
56040;BME280;43937;41.366;2.072;2022-10-04T11:50:47;101400.59;;;26.78;42.51
56040;BME280;43937;41.366;2.072;2022-10-04T11:53:19;101394.16;;;26.78;42.96
56040;BME280;43937;41.366;2.072;2022-10-04T11:59:54;101361.47;;;26.56;42.45
56040;BME280;43937;41.366;2.072;2022-10-04T12:14:08;101360.81;;;26.49;43.13
56040;BME280;43937;41.366;2.072;2022-10-04T12:19:24;101364.94;;;26.63;44.54
56040;BME280;43937;41.366;2.072;2022-10-04T12:33:43;101348.03;;;26.97;43.81
56040;BME280;43937;41.366;2.072;2022-10-04T12:39:12;101345.38;;;26.85;44.15
56040;BME280;43937;41.366;2.072;2022-10-04T12:50:30;101329.84;;;26.94;44.60
56040;BME280;43937;41.366;2.072;2022-10-04T13:01:27;101320.94;;;26.54;42.15
56040;BME280;43937;41.366;2.072;2022-10-04T13:04:03;101314.47;;;26.70;40.90
56040;BME280;43937;41.366;2.072;2022-10-04T13:09:15;101303.28;;;26.92;40.66
56040;BME280;43937;41.366;2.072;2022-10-04T13:14:31;101299.31;;;26.88;39.71
56040;BME280;43937;41.366;2.072;2022-10-04T13:30:26;101281.91;;;26.81;40.99
56040;BME280;43937;41.366;2.072;2022-10-04T13:35:30;101276.38;;;26.86;40.54
56040;BME280;43937;41.366;2.072;2022-10-04T14:00:00;101289.97;;;26.77;42.54
56040;BME280;43937;41.366;2.072;2022-10-04T14:02:44;101287.81;;;26.57;42.38
56040;BME280;43937;41.366;2.072;2022-10-04T14:35:15;101301.00;;;25.39;47.01
56040;BME280;43937;41.366;2.072;2022-10-04T14:38:05;101302.88;;;25.50;49.00
56040;BME280;43937;41.366;2.072;2022-10-04T14:44:15;101315.63;;;25.46;49.26
56040;BME280;43937;41.366;2.072;2022-10-04T14:49:06;101319.66;;;25.21;49.78
56040;BME280;43937;41.366;2.072;2022-10-04T14:52:06;101329.25;;;25.13;50.57
56040;BME280;43937;41.366;2.072;2022-10-04T15:02:54;101333.81;;;25.20;51.90
56040;BME280;43937;41.366;2.072;2022-10-04T15:05:32;101334.44;;;25.39;51.73
56040;BME280;43937;41.366;2.072;2022-10-04T15:11:07;101348.97;;;25.24;51.15
56040;BME280;43937;41.366;2.072;2022-10-04T15:13:54;101341.78;;;25.28;51.98
56040;BME280;43937;41.366;2.072;2022-10-04T15:16:36;101350.31;;;25.09;51.53
56040;BME280;43937;41.366;2.072;2022-10-04T15:29:54;101346.94;;;24.67;57.59
56040;BME280;43937;41.366;2.072;2022-10-04T15:35:12;101348.97;;;24.72;58.97
56040;BME280;43937;41.366;2.072;2022-10-04T15:37:59;101340.53;;;24.66;60.21
56040;BME280;43937;41.366;2.072;2022-10-04T15:41:05;101347.81;;;24.44;62.23
56040;BME280;43937;41.366;2.072;2022-10-04T15:49:40;101353.50;;;24.49;63.74
56040;BME280;43937;41.366;2.072;2022-10-04T15:52:33;101363.91;;;24.30;64.62
56040;BME280;43937;41.366;2.072;2022-10-04T15:55:19;101339.34;;;24.39;63.62
56040;BME280;43937;41.366;2.072;2022-10-04T16:03:29;101367.19;;;24.15;64.16
56040;BME280;43937;41.366;2.072;2022-10-04T16:19:20;101366.81;;;24.12;64.21
56040;BME280;43937;41.366;2.072;2022-10-04T16:21:53;101376.84;;;24.01;62.88
56040;BME280;43937;41.366;2.072;2022-10-04T16:25:37;101265.25;;;23.20;64.43
56040;BME280;43937;41.366;2.072;2022-10-04T16:28:13;101359.16;;;23.72;65.65
56040;BME280;43937;41.366;2.072;2022-10-04T16:33:54;101282.53;;;23.22;65.82
56040;BME280;43937;41.366;2.072;2022-10-04T16:36:25;101359.00;;;23.67;65.70
56040;BME280;43937;41.366;2.072;2022-10-04T16:38:54;101402.91;;;23.76;65.76
56040;BME280;43937;41.366;2.072;2022-10-04T16:41:54;101400.50;;;23.80;66.08
56040;BME280;43937;41.366;2.072;2022-10-04T16:47:33;101402.06;;;23.76;65.51
56040;BME280;43937;41.366;2.072;2022-10-04T16:50:00;101415.59;;;23.72;66.14
56040;BME280;43937;41.366;2.072;2022-10-04T17:04:07;101407.16;;;23.49;68.96
56040;BME280;43937;41.366;2.072;2022-10-04T17:32:13;101431.91;;;22.83;75.21
56040;BME280;43937;41.366;2.072;2022-10-04T17:37:43;101435.13;;;22.62;76.78
56040;BME280;43937;41.366;2.072;2022-10-04T17:40:18;101438.00;;;22.74;76.65
56040;BME280;43937;41.366;2.072;2022-10-04T17:43:31;101441.91;;;22.66;77.23
56040;BME280;43937;41.366;2.072;2022-10-04T17:46:10;101440.59;;;22.69;77.44
56040;BME280;43937;41.366;2.072;2022-10-04T17:48:52;101444.22;;;22.69;77.63
56040;BME280;43937;41.366;2.072;2022-10-04T17:51:46;101449.94;;;22.74;77.48
56040;BME280;43937;41.366;2.072;2022-10-04T17:54:58;101449.31;;;22.72;76.98
56040;BME280;43937;41.366;2.072;2022-10-04T17:58:00;101446.41;;;22.67;76.50
56040;BME280;43937;41.366;2.072;2022-10-04T18:01:07;101459.34;;;22.55;77.12
56040;BME280;43937;41.366;2.072;2022-10-04T18:04:59;101436.13;;;22.49;77.08
56040;BME280;43937;41.366;2.072;2022-10-04T18:07:47;101451.56;;;22.63;76.26
56040;BME280;43937;41.366;2.072;2022-10-04T18:12:02;101397.78;;;22.21;77.14
56040;BME280;43937;41.366;2.072;2022-10-04T18:17:01;101448.91;;;22.50;77.07
56040;BME280;43937;41.366;2.072;2022-10-04T18:22:16;101451.09;;;22.48;76.86
56040;BME280;43937;41.366;2.072;2022-10-04T18:24:44;101447.91;;;22.45;76.67
56040;BME280;43937;41.366;2.072;2022-10-04T18:27:20;101457.88;;;22.52;76.73
56040;BME280;43937;41.366;2.072;2022-10-04T18:35:22;101463.63;;;22.51;76.34
56040;BME280;43937;41.366;2.072;2022-10-04T18:37:50;101460.84;;;22.51;76.46
56040;BME280;43937;41.366;2.072;2022-10-04T18:40:25;101465.94;;;22.54;76.09
56040;BME280;43937;41.366;2.072;2022-10-04T18:42:57;101463.34;;;22.59;75.83
56040;BME280;43937;41.366;2.072;2022-10-04T18:47:50;101467.88;;;22.53;75.85
56040;BME280;43937;41.366;2.072;2022-10-04T18:54:53;101485.72;;;22.39;76.50
56040;BME280;43937;41.366;2.072;2022-10-04T18:57:40;101489.50;;;22.45;76.70
56040;BME280;43937;41.366;2.072;2022-10-04T19:00:33;101487.81;;;22.44;76.46
56040;BME280;43937;41.366;2.072;2022-10-04T19:03:31;101486.13;;;22.43;77.15
56040;BME280;43937;41.366;2.072;2022-10-04T19:08:35;101483.97;;;22.45;76.49
56040;BME280;43937;41.366;2.072;2022-10-04T19:11:23;101489.97;;;22.41;76.96
56040;BME280;43937;41.366;2.072;2022-10-04T19:22:06;101497.41;;;22.16;78.69
56040;BME280;43937;41.366;2.072;2022-10-04T19:27:28;101506.94;;;22.27;78.01
56040;BME280;43937;41.366;2.072;2022-10-04T19:30:38;101505.50;;;22.24;78.54
56040;BME280;43937;41.366;2.072;2022-10-04T19:33:22;101494.41;;;22.24;78.27
56040;BME280;43937;41.366;2.072;2022-10-04T19:50:23;101525.97;;;22.23;78.16
56040;BME280;43937;41.366;2.072;2022-10-04T19:53:01;101518.31;;;22.18;77.91
56040;BME280;43937;41.366;2.072;2022-10-04T20:00:54;101523.03;;;22.11;78.22
56040;BME280;43937;41.366;2.072;2022-10-04T20:03:19;101535.19;;;22.17;77.92
56040;BME280;43937;41.366;2.072;2022-10-04T20:05:50;101524.16;;;22.04;78.24
56040;BME280;43937;41.366;2.072;2022-10-04T20:08:47;101533.28;;;22.11;78.06
56040;BME280;43937;41.366;2.072;2022-10-04T20:11:14;101528.22;;;22.01;78.32
56040;BME280;43937;41.366;2.072;2022-10-04T20:13:40;101532.81;;;21.82;79.24
56040;BME280;43937;41.366;2.072;2022-10-04T20:16:06;101525.00;;;21.72;79.21
56040;BME280;43937;41.366;2.072;2022-10-04T20:26:33;101537.28;;;21.83;79.48
56040;BME280;43937;41.366;2.072;2022-10-04T20:32:10;101537.72;;;21.80;79.45
56040;BME280;43937;41.366;2.072;2022-10-04T20:37:04;101538.88;;;21.66;80.28
56040;BME280;43937;41.366;2.072;2022-10-04T20:42:27;101535.25;;;21.65;80.52
56040;BME280;43937;41.366;2.072;2022-10-04T20:45:25;101536.53;;;21.63;80.72
56040;BME280;43937;41.366;2.072;2022-10-04T20:47:55;101535.47;;;21.64;80.49
56040;BME280;43937;41.366;2.072;2022-10-04T20:50:34;101542.91;;;21.70;80.59
56040;BME280;43937;41.366;2.072;2022-10-04T20:53:03;101548.44;;;21.70;80.35
56040;BME280;43937;41.366;2.072;2022-10-04T20:55:33;101545.88;;;21.68;79.93
56040;BME280;43937;41.366;2.072;2022-10-04T20:58:02;101541.03;;;21.57;80.55
56040;BME280;43937;41.366;2.072;2022-10-04T21:00:31;101550.47;;;21.49;81.18
56040;BME280;43937;41.366;2.072;2022-10-04T21:05:32;101539.03;;;21.19;82.17
56040;BME280;43937;41.366;2.072;2022-10-04T21:08:20;101555.41;;;21.21;82.38
56040;BME280;43937;41.366;2.072;2022-10-04T21:11:09;101550.75;;;21.15;83.05
56040;BME280;43937;41.366;2.072;2022-10-04T21:19:53;101559.72;;;21.03;83.64
56040;BME280;43937;41.366;2.072;2022-10-04T21:23:32;101562.69;;;21.09;83.79
56040;BME280;43937;41.366;2.072;2022-10-04T21:26:23;101559.28;;;21.07;83.61
56040;BME280;43937;41.366;2.072;2022-10-04T21:28:56;101556.09;;;20.96;84.30
56040;BME280;43937;41.366;2.072;2022-10-04T21:31:22;101558.69;;;20.91;84.52
56040;BME280;43937;41.366;2.072;2022-10-04T21:33:47;101552.94;;;20.86;84.98
56040;BME280;43937;41.366;2.072;2022-10-04T21:36:13;101552.50;;;20.89;84.91
56040;BME280;43937;41.366;2.072;2022-10-04T21:38:38;101555.28;;;20.89;84.53
56040;BME280;43937;41.366;2.072;2022-10-04T21:41:04;101555.03;;;20.91;84.45
56040;BME280;43937;41.366;2.072;2022-10-04T21:43:29;101532.53;;;20.74;85.28
56040;BME280;43937;41.366;2.072;2022-10-04T21:45:55;101547.84;;;20.83;84.79
56040;BME280;43937;41.366;2.072;2022-10-04T21:48:20;101555.72;;;20.86;84.79
56040;BME280;43937;41.366;2.072;2022-10-04T21:50:48;101551.25;;;20.85;84.59
56040;BME280;43937;41.366;2.072;2022-10-04T21:53:14;101558.91;;;20.83;85.15
56040;BME280;43937;41.366;2.072;2022-10-04T21:55:39;101551.25;;;20.85;84.85
56040;BME280;43937;41.366;2.072;2022-10-04T21:58:05;101544.22;;;20.69;85.57
56040;BME280;43937;41.366;2.072;2022-10-04T22:00:30;101542.75;;;20.53;85.94
56040;BME280;43937;41.366;2.072;2022-10-04T22:02:57;101542.72;;;20.47;86.60
56040;BME280;43937;41.366;2.072;2022-10-04T22:05:22;101563.19;;;20.52;87.06
56040;BME280;43937;41.366;2.072;2022-10-04T22:07:48;101552.50;;;20.43;87.35
56040;BME280;43937;41.366;2.072;2022-10-04T22:10:13;101563.13;;;20.39;87.33
56040;BME280;43937;41.366;2.072;2022-10-04T22:12:39;101564.84;;;20.33;87.66
56040;BME280;43937;41.366;2.072;2022-10-04T22:15:07;101563.53;;;20.29;88.12
56040;BME280;43937;41.366;2.072;2022-10-04T22:17:33;101563.72;;;20.14;88.61
56040;BME280;43937;41.366;2.072;2022-10-04T22:19:59;101557.13;;;20.02;88.79
56040;BME280;43937;41.366;2.072;2022-10-04T22:22:24;101567.75;;;19.99;88.68
56040;BME280;43937;41.366;2.072;2022-10-04T22:24:49;101567.72;;;19.92;89.32
56040;BME280;43937;41.366;2.072;2022-10-04T22:27:17;101569.44;;;19.93;89.14
56040;BME280;43937;41.366;2.072;2022-10-04T22:29:46;101570.69;;;19.90;89.55
56040;BME280;43937;41.366;2.072;2022-10-04T22:32:21;101557.94;;;19.83;89.54
56040;BME280;43937;41.366;2.072;2022-10-04T22:35:05;101563.03;;;19.86;89.93
56040;BME280;43937;41.366;2.072;2022-10-04T22:37:34;101564.72;;;19.80;90.48
56040;BME280;43937;41.366;2.072;2022-10-04T22:40:00;101563.22;;;19.78;90.56
56040;BME280;43937;41.366;2.072;2022-10-04T22:42:27;101567.25;;;19.75;90.48
56040;BME280;43937;41.366;2.072;2022-10-04T22:44:54;101568.09;;;19.76;90.39
56040;BME280;43937;41.366;2.072;2022-10-04T22:47:20;101558.75;;;19.70;90.44
56040;BME280;43937;41.366;2.072;2022-10-04T22:49:47;101562.06;;;19.59;90.80
56040;BME280;43937;41.366;2.072;2022-10-04T22:53:34;101552.69;;;19.53;90.40
56040;BME280;43937;41.366;2.072;2022-10-04T22:56:00;101562.66;;;19.54;90.88
56040;BME280;43937;41.366;2.072;2022-10-04T22:58:26;101572.25;;;19.52;91.17
56040;BME280;43937;41.366;2.072;2022-10-04T23:00:53;101556.94;;;19.49;91.02
56040;BME280;43937;41.366;2.072;2022-10-04T23:03:31;101572.44;;;19.50;91.29
56040;BME280;43937;41.366;2.072;2022-10-04T23:05:59;101572.66;;;19.49;91.32
56040;BME280;43937;41.366;2.072;2022-10-04T23:08:26;101575.59;;;19.47;90.90
56040;BME280;43937;41.366;2.072;2022-10-04T23:10:56;101559.84;;;19.34;90.48
56040;BME280;43937;41.366;2.072;2022-10-04T23:13:23;101570.50;;;19.44;90.46
56040;BME280;43937;41.366;2.072;2022-10-04T23:17:53;101562.16;;;19.31;90.70
56040;BME280;43937;41.366;2.072;2022-10-04T23:20:22;101570.63;;;19.29;90.57
56040;BME280;43937;41.366;2.072;2022-10-04T23:22:50;101576.38;;;19.28;90.78
56040;BME280;43937;41.366;2.072;2022-10-04T23:25:28;101578.47;;;19.26;91.11
56040;BME280;43937;41.366;2.072;2022-10-04T23:28:00;101570.38;;;19.24;91.52
56040;BME280;43937;41.366;2.072;2022-10-04T23:31:50;101585.91;;;19.25;91.84